sensor_id;sensor_type;location;lat;lon;timestamp;P1;durP1;ratioP1;P2;durP2;ratioP2
6755;SDS011;3415;51.148;7.014;2023-07-20T00:01:53;3.10;;;2.20;;
6755;SDS011;3415;51.148;7.014;2023-07-20T00:04:20;3.43;;;2.53;;
6755;SDS011;3415;51.148;7.014;2023-07-20T00:06:47;4.20;;;2.10;;
6755;SDS011;3415;51.148;7.014;2023-07-20T00:09:14;3.47;;;2.00;;
6755;SDS011;3415;51.148;7.014;2023-07-20T00:11:47;3.53;;;2.30;;
6755;SDS011;3415;51.148;7.014;2023-07-20T00:14:15;3.80;;;2.20;;
6755;SDS011;3415;51.148;7.014;2023-07-20T00:16:44;2.80;;;1.93;;
6755;SDS011;3415;51.148;7.014;2023-07-20T00:19:14;2.83;;;2.30;;
6755;SDS011;3415;51.148;7.014;2023-07-20T00:21:42;3.40;;;2.83;;
6755;SDS011;3415;51.148;7.014;2023-07-20T00:24:09;3.40;;;2.30;;
6755;SDS011;3415;51.148;7.014;2023-07-20T00:26:36;11.10;;;2.83;;
6755;SDS011;3415;51.148;7.014;2023-07-20T00:29:03;6.03;;;2.60;;
6755;SDS011;3415;51.148;7.014;2023-07-20T00:31:30;4.10;;;2.90;;
6755;SDS011;3415;51.148;7.014;2023-07-20T00:33:58;2.53;;;2.10;;
6755;SDS011;3415;51.148;7.014;2023-07-20T00:36:25;6.63;;;2.87;;
6755;SDS011;3415;51.148;7.014;2023-07-20T00:38:52;4.50;;;2.17;;
6755;SDS011;3415;51.148;7.014;2023-07-20T00:41:19;4.40;;;2.57;;
6755;SDS011;3415;51.148;7.014;2023-07-20T00:43:47;3.97;;;2.10;;
6755;SDS011;3415;51.148;7.014;2023-07-20T00:46:14;4.07;;;2.67;;
6755;SDS011;3415;51.148;7.014;2023-07-20T00:48:41;2.93;;;2.17;;
6755;SDS011;3415;51.148;7.014;2023-07-20T00:51:10;4.70;;;2.80;;
6755;SDS011;3415;51.148;7.014;2023-07-20T00:53:37;3.27;;;2.30;;
6755;SDS011;3415;51.148;7.014;2023-07-20T00:56:04;4.43;;;3.00;;
6755;SDS011;3415;51.148;7.014;2023-07-20T00:58:34;3.07;;;2.77;;
6755;SDS011;3415;51.148;7.014;2023-07-20T01:01:01;3.27;;;2.70;;
6755;SDS011;3415;51.148;7.014;2023-07-20T01:03:28;3.83;;;2.93;;
6755;SDS011;3415;51.148;7.014;2023-07-20T01:05:57;8.60;;;3.00;;
6755;SDS011;3415;51.148;7.014;2023-07-20T01:08:33;4.70;;;2.70;;
6755;SDS011;3415;51.148;7.014;2023-07-20T01:11:10;3.90;;;2.87;;
6755;SDS011;3415;51.148;7.014;2023-07-20T01:13:42;2.97;;;2.47;;
6755;SDS011;3415;51.148;7.014;2023-07-20T01:16:11;4.70;;;2.23;;
6755;SDS011;3415;51.148;7.014;2023-07-20T01:18:38;5.33;;;2.23;;
6755;SDS011;3415;51.148;7.014;2023-07-20T01:21:06;3.53;;;2.97;;
6755;SDS011;3415;51.148;7.014;2023-07-20T01:27:00;3.00;;;2.33;;
6755;SDS011;3415;51.148;7.014;2023-07-20T01:30:16;3.93;;;2.70;;
6755;SDS011;3415;51.148;7.014;2023-07-20T01:33:02;4.23;;;2.03;;
6755;SDS011;3415;51.148;7.014;2023-07-20T01:35:30;5.10;;;2.80;;
6755;SDS011;3415;51.148;7.014;2023-07-20T01:37:58;4.97;;;2.87;;
6755;SDS011;3415;51.148;7.014;2023-07-20T01:40:26;5.63;;;3.67;;
6755;SDS011;3415;51.148;7.014;2023-07-20T01:42:53;6.53;;;3.20;;
6755;SDS011;3415;51.148;7.014;2023-07-20T01:45:21;3.00;;;2.80;;
6755;SDS011;3415;51.148;7.014;2023-07-20T01:47:48;3.87;;;2.90;;
6755;SDS011;3415;51.148;7.014;2023-07-20T01:50:16;7.20;;;3.30;;
6755;SDS011;3415;51.148;7.014;2023-07-20T01:52:43;5.00;;;2.97;;
6755;SDS011;3415;51.148;7.014;2023-07-20T01:55:10;7.70;;;3.10;;
6755;SDS011;3415;51.148;7.014;2023-07-20T01:57:37;6.13;;;3.00;;
6755;SDS011;3415;51.148;7.014;2023-07-20T02:00:04;3.50;;;2.57;;
6755;SDS011;3415;51.148;7.014;2023-07-20T02:02:33;5.83;;;3.30;;
6755;SDS011;3415;51.148;7.014;2023-07-20T02:05:00;3.90;;;3.00;;
6755;SDS011;3415;51.148;7.014;2023-07-20T02:07:29;9.40;;;3.60;;
6755;SDS011;3415;51.148;7.014;2023-07-20T02:09:56;5.20;;;3.83;;
6755;SDS011;3415;51.148;7.014;2023-07-20T02:12:23;4.70;;;3.50;;
6755;SDS011;3415;51.148;7.014;2023-07-20T02:14:50;5.40;;;3.30;;
6755;SDS011;3415;51.148;7.014;2023-07-20T02:17:18;6.70;;;3.87;;
6755;SDS011;3415;51.148;7.014;2023-07-20T02:19:45;5.77;;;3.37;;
6755;SDS011;3415;51.148;7.014;2023-07-20T02:22:14;4.20;;;2.90;;
6755;SDS011;3415;51.148;7.014;2023-07-20T02:24:43;5.50;;;2.97;;
6755;SDS011;3415;51.148;7.014;2023-07-20T02:27:10;3.77;;;3.10;;
6755;SDS011;3415;51.148;7.014;2023-07-20T02:29:37;5.73;;;3.00;;
6755;SDS011;3415;51.148;7.014;2023-07-20T02:32:05;5.73;;;3.00;;
6755;SDS011;3415;51.148;7.014;2023-07-20T02:34:33;4.20;;;3.17;;
6755;SDS011;3415;51.148;7.014;2023-07-20T02:37:00;4.33;;;2.67;;
6755;SDS011;3415;51.148;7.014;2023-07-20T02:39:27;4.70;;;3.20;;
6755;SDS011;3415;51.148;7.014;2023-07-20T02:41:56;4.30;;;2.80;;
6755;SDS011;3415;51.148;7.014;2023-07-20T02:44:23;6.67;;;3.37;;
6755;SDS011;3415;51.148;7.014;2023-07-20T02:46:50;4.47;;;3.00;;
6755;SDS011;3415;51.148;7.014;2023-07-20T02:49:17;5.30;;;3.17;;
6755;SDS011;3415;51.148;7.014;2023-07-20T02:51:44;7.30;;;3.20;;
6755;SDS011;3415;51.148;7.014;2023-07-20T02:54:11;8.30;;;3.17;;
6755;SDS011;3415;51.148;7.014;2023-07-20T02:56:38;4.97;;;3.60;;
6755;SDS011;3415;51.148;7.014;2023-07-20T02:59:06;7.13;;;3.37;;
6755;SDS011;3415;51.148;7.014;2023-07-20T03:01:34;7.70;;;3.60;;
6755;SDS011;3415;51.148;7.014;2023-07-20T03:04:01;5.00;;;3.20;;
6755;SDS011;3415;51.148;7.014;2023-07-20T03:06:29;3.30;;;2.80;;
6755;SDS011;3415;51.148;7.014;2023-07-20T03:08:56;10.00;;;2.90;;
6755;SDS011;3415;51.148;7.014;2023-07-20T03:11:23;6.13;;;3.70;;
6755;SDS011;3415;51.148;7.014;2023-07-20T03:13:50;4.50;;;3.50;;
6755;SDS011;3415;51.148;7.014;2023-07-20T03:16:19;5.47;;;3.27;;
6755;SDS011;3415;51.148;7.014;2023-07-20T03:18:46;6.73;;;3.40;;
6755;SDS011;3415;51.148;7.014;2023-07-20T03:21:13;3.60;;;2.80;;
6755;SDS011;3415;51.148;7.014;2023-07-20T03:23:40;6.20;;;3.43;;
6755;SDS011;3415;51.148;7.014;2023-07-20T03:26:08;5.57;;;3.80;;
6755;SDS011;3415;51.148;7.014;2023-07-20T03:28:35;3.40;;;3.10;;
6755;SDS011;3415;51.148;7.014;2023-07-20T03:31:02;4.83;;;2.83;;
6755;SDS011;3415;51.148;7.014;2023-07-20T03:33:31;3.73;;;2.90;;
6755;SDS011;3415;51.148;7.014;2023-07-20T03:35:58;9.33;;;3.47;;
6755;SDS011;3415;51.148;7.014;2023-07-20T03:38:26;5.40;;;3.57;;
6755;SDS011;3415;51.148;7.014;2023-07-20T03:40:53;6.83;;;3.40;;
6755;SDS011;3415;51.148;7.014;2023-07-20T03:43:22;5.67;;;3.60;;
6755;SDS011;3415;51.148;7.014;2023-07-20T03:45:50;5.40;;;3.03;;
6755;SDS011;3415;51.148;7.014;2023-07-20T03:48:19;5.50;;;3.13;;
6755;SDS011;3415;51.148;7.014;2023-07-20T03:50:49;5.00;;;3.00;;
6755;SDS011;3415;51.148;7.014;2023-07-20T03:53:17;5.30;;;3.23;;
6755;SDS011;3415;51.148;7.014;2023-07-20T03:55:45;6.77;;;3.70;;
6755;SDS011;3415;51.148;7.014;2023-07-20T03:58:12;5.87;;;4.00;;
6755;SDS011;3415;51.148;7.014;2023-07-20T04:00:40;4.93;;;3.57;;
6755;SDS011;3415;51.148;7.014;2023-07-20T04:03:10;6.10;;;3.77;;
6755;SDS011;3415;51.148;7.014;2023-07-20T04:05:37;6.50;;;3.23;;
6755;SDS011;3415;51.148;7.014;2023-07-20T04:08:06;11.03;;;3.23;;
6755;SDS011;3415;51.148;7.014;2023-07-20T04:10:33;4.23;;;3.03;;
6755;SDS011;3415;51.148;7.014;2023-07-20T04:13:00;10.80;;;3.53;;
6755;SDS011;3415;51.148;7.014;2023-07-20T04:15:27;7.17;;;3.73;;
6755;SDS011;3415;51.148;7.014;2023-07-20T04:17:54;10.23;;;3.27;;
6755;SDS011;3415;51.148;7.014;2023-07-20T04:20:21;8.07;;;3.80;;
6755;SDS011;3415;51.148;7.014;2023-07-20T04:22:48;4.47;;;3.67;;
6755;SDS011;3415;51.148;7.014;2023-07-20T04:25:17;5.63;;;3.30;;
6755;SDS011;3415;51.148;7.014;2023-07-20T04:27:44;3.90;;;3.10;;
6755;SDS011;3415;51.148;7.014;2023-07-20T04:30:12;8.70;;;3.70;;
6755;SDS011;3415;51.148;7.014;2023-07-20T04:32:40;8.07;;;3.70;;
6755;SDS011;3415;51.148;7.014;2023-07-20T04:35:09;5.97;;;3.10;;
6755;SDS011;3415;51.148;7.014;2023-07-20T04:37:36;8.77;;;4.50;;
6755;SDS011;3415;51.148;7.014;2023-07-20T04:40:03;4.40;;;3.27;;
6755;SDS011;3415;51.148;7.014;2023-07-20T04:42:34;7.40;;;3.60;;
6755;SDS011;3415;51.148;7.014;2023-07-20T04:45:01;4.73;;;3.60;;
6755;SDS011;3415;51.148;7.014;2023-07-20T04:47:29;8.40;;;3.50;;
6755;SDS011;3415;51.148;7.014;2023-07-20T04:49:56;5.10;;;3.83;;
6755;SDS011;3415;51.148;7.014;2023-07-20T04:52:23;7.00;;;3.70;;
6755;SDS011;3415;51.148;7.014;2023-07-20T04:54:50;3.20;;;2.90;;
6755;SDS011;3415;51.148;7.014;2023-07-20T04:57:17;6.87;;;3.93;;
6755;SDS011;3415;51.148;7.014;2023-07-20T04:59:45;10.70;;;3.77;;
6755;SDS011;3415;51.148;7.014;2023-07-20T05:02:12;9.33;;;3.80;;
6755;SDS011;3415;51.148;7.014;2023-07-20T05:04:39;5.40;;;3.80;;
6755;SDS011;3415;51.148;7.014;2023-07-20T05:07:06;8.60;;;3.87;;
6755;SDS011;3415;51.148;7.014;2023-07-20T05:09:33;6.03;;;4.23;;
6755;SDS011;3415;51.148;7.014;2023-07-20T05:12:00;5.10;;;4.00;;
6755;SDS011;3415;51.148;7.014;2023-07-20T05:14:27;5.77;;;3.50;;
6755;SDS011;3415;51.148;7.014;2023-07-20T05:16:55;9.37;;;4.83;;
6755;SDS011;3415;51.148;7.014;2023-07-20T05:19:22;8.10;;;3.90;;
6755;SDS011;3415;51.148;7.014;2023-07-20T05:21:51;6.13;;;4.17;;
6755;SDS011;3415;51.148;7.014;2023-07-20T05:24:18;6.53;;;4.47;;
6755;SDS011;3415;51.148;7.014;2023-07-20T05:26:45;8.60;;;4.60;;
6755;SDS011;3415;51.148;7.014;2023-07-20T05:29:14;7.13;;;4.43;;
6755;SDS011;3415;51.148;7.014;2023-07-20T05:31:41;9.43;;;5.03;;
6755;SDS011;3415;51.148;7.014;2023-07-20T05:34:09;5.57;;;4.67;;
6755;SDS011;3415;51.148;7.014;2023-07-20T05:36:36;7.87;;;4.77;;
6755;SDS011;3415;51.148;7.014;2023-07-20T05:39:03;8.57;;;4.80;;
6755;SDS011;3415;51.148;7.014;2023-07-20T05:41:30;6.30;;;4.67;;
6755;SDS011;3415;51.148;7.014;2023-07-20T05:43:57;10.20;;;5.00;;
6755;SDS011;3415;51.148;7.014;2023-07-20T05:46:24;7.93;;;5.23;;
6755;SDS011;3415;51.148;7.014;2023-07-20T05:48:51;8.03;;;5.60;;
6755;SDS011;3415;51.148;7.014;2023-07-20T05:51:19;13.57;;;5.80;;
6755;SDS011;3415;51.148;7.014;2023-07-20T05:53:46;11.80;;;5.93;;
6755;SDS011;3415;51.148;7.014;2023-07-20T05:56:13;8.90;;;5.43;;
6755;SDS011;3415;51.148;7.014;2023-07-20T05:58:40;10.17;;;5.53;;
6755;SDS011;3415;51.148;7.014;2023-07-20T06:01:07;10.20;;;5.27;;
6755;SDS011;3415;51.148;7.014;2023-07-20T06:03:34;7.63;;;5.93;;
6755;SDS011;3415;51.148;7.014;2023-07-20T06:06:02;7.53;;;5.27;;
6755;SDS011;3415;51.148;7.014;2023-07-20T06:08:32;13.70;;;5.47;;
6755;SDS011;3415;51.148;7.014;2023-07-20T06:10:59;11.50;;;5.87;;
6755;SDS011;3415;51.148;7.014;2023-07-20T06:13:26;11.57;;;4.67;;
6755;SDS011;3415;51.148;7.014;2023-07-20T06:15:53;9.03;;;5.30;;
6755;SDS011;3415;51.148;7.014;2023-07-20T06:18:20;9.77;;;6.17;;
6755;SDS011;3415;51.148;7.014;2023-07-20T06:20:49;7.90;;;4.93;;
6755;SDS011;3415;51.148;7.014;2023-07-20T06:23:16;10.03;;;5.80;;
6755;SDS011;3415;51.148;7.014;2023-07-20T06:25:45;11.07;;;5.60;;
6755;SDS011;3415;51.148;7.014;2023-07-20T06:28:13;10.93;;;6.07;;
6755;SDS011;3415;51.148;7.014;2023-07-20T06:30:40;10.23;;;6.50;;
6755;SDS011;3415;51.148;7.014;2023-07-20T06:33:07;14.40;;;7.57;;
6755;SDS011;3415;51.148;7.014;2023-07-20T06:35:34;10.17;;;6.77;;
6755;SDS011;3415;51.148;7.014;2023-07-20T06:38:01;11.80;;;6.47;;
6755;SDS011;3415;51.148;7.014;2023-07-20T06:40:29;15.33;;;7.30;;
6755;SDS011;3415;51.148;7.014;2023-07-20T06:42:57;10.80;;;6.67;;
6755;SDS011;3415;51.148;7.014;2023-07-20T06:45:24;16.47;;;7.23;;
6755;SDS011;3415;51.148;7.014;2023-07-20T06:47:51;14.53;;;7.60;;
6755;SDS011;3415;51.148;7.014;2023-07-20T06:50:18;10.03;;;6.90;;
6755;SDS011;3415;51.148;7.014;2023-07-20T06:52:45;10.57;;;7.03;;
6755;SDS011;3415;51.148;7.014;2023-07-20T06:55:13;10.00;;;7.30;;
6755;SDS011;3415;51.148;7.014;2023-07-20T06:57:40;7.57;;;6.17;;
6755;SDS011;3415;51.148;7.014;2023-07-20T07:00:09;9.50;;;6.10;;
6755;SDS011;3415;51.148;7.014;2023-07-20T07:02:38;12.20;;;6.73;;
6755;SDS011;3415;51.148;7.014;2023-07-20T07:05:05;7.10;;;5.70;;
6755;SDS011;3415;51.148;7.014;2023-07-20T07:07:33;7.80;;;6.27;;
6755;SDS011;3415;51.148;7.014;2023-07-20T07:10:00;14.67;;;6.47;;
6755;SDS011;3415;51.148;7.014;2023-07-20T07:12:29;10.30;;;6.67;;
6755;SDS011;3415;51.148;7.014;2023-07-20T07:14:56;7.20;;;5.50;;
6755;SDS011;3415;51.148;7.014;2023-07-20T07:17:26;8.13;;;5.87;;
6755;SDS011;3415;51.148;7.014;2023-07-20T07:19:53;10.27;;;6.20;;
6755;SDS011;3415;51.148;7.014;2023-07-20T07:22:21;9.40;;;6.47;;
6755;SDS011;3415;51.148;7.014;2023-07-20T07:24:48;10.13;;;5.80;;
6755;SDS011;3415;51.148;7.014;2023-07-20T07:27:15;7.77;;;5.93;;
6755;SDS011;3415;51.148;7.014;2023-07-20T07:29:42;12.40;;;5.23;;
6755;SDS011;3415;51.148;7.014;2023-07-20T07:32:10;7.67;;;5.47;;
6755;SDS011;3415;51.148;7.014;2023-07-20T07:34:38;7.00;;;5.97;;
6755;SDS011;3415;51.148;7.014;2023-07-20T07:37:05;6.80;;;5.80;;
6755;SDS011;3415;51.148;7.014;2023-07-20T07:39:32;6.30;;;4.80;;
6755;SDS011;3415;51.148;7.014;2023-07-20T07:41:59;7.70;;;6.10;;
6755;SDS011;3415;51.148;7.014;2023-07-20T07:44:26;6.60;;;5.10;;
6755;SDS011;3415;51.148;7.014;2023-07-20T07:46:54;9.30;;;5.87;;
6755;SDS011;3415;51.148;7.014;2023-07-20T07:49:21;8.27;;;5.93;;
6755;SDS011;3415;51.148;7.014;2023-07-20T07:51:49;9.10;;;4.93;;
6755;SDS011;3415;51.148;7.014;2023-07-20T07:54:16;7.20;;;5.67;;
6755;SDS011;3415;51.148;7.014;2023-07-20T07:56:43;7.97;;;6.20;;
6755;SDS011;3415;51.148;7.014;2023-07-20T07:59:10;8.80;;;6.20;;
6755;SDS011;3415;51.148;7.014;2023-07-20T08:01:37;7.37;;;5.70;;
6755;SDS011;3415;51.148;7.014;2023-07-20T08:04:05;6.23;;;4.60;;
6755;SDS011;3415;51.148;7.014;2023-07-20T08:06:32;6.47;;;5.70;;
6755;SDS011;3415;51.148;7.014;2023-07-20T08:09:01;6.77;;;5.90;;
6755;SDS011;3415;51.148;7.014;2023-07-20T08:11:28;7.03;;;4.80;;
6755;SDS011;3415;51.148;7.014;2023-07-20T08:13:58;3.67;;;3.37;;
6755;SDS011;3415;51.148;7.014;2023-07-20T08:16:26;8.17;;;5.00;;
6755;SDS011;3415;51.148;7.014;2023-07-20T08:18:53;6.00;;;5.07;;
6755;SDS011;3415;51.148;7.014;2023-07-20T08:21:20;3.70;;;3.40;;
6755;SDS011;3415;51.148;7.014;2023-07-20T08:23:47;5.23;;;3.97;;
6755;SDS011;3415;51.148;7.014;2023-07-20T08:26:15;3.90;;;2.83;;
6755;SDS011;3415;51.148;7.014;2023-07-20T08:28:43;2.40;;;1.90;;
6755;SDS011;3415;51.148;7.014;2023-07-20T08:31:13;2.40;;;1.93;;
6755;SDS011;3415;51.148;7.014;2023-07-20T08:33:40;2.70;;;1.83;;
6755;SDS011;3415;51.148;7.014;2023-07-20T08:36:07;2.20;;;2.00;;
6755;SDS011;3415;51.148;7.014;2023-07-20T08:38:34;2.10;;;1.90;;
6755;SDS011;3415;51.148;7.014;2023-07-20T08:41:01;2.23;;;1.47;;
6755;SDS011;3415;51.148;7.014;2023-07-20T08:43:29;1.30;;;1.20;;
6755;SDS011;3415;51.148;7.014;2023-07-20T08:45:57;2.57;;;1.60;;
6755;SDS011;3415;51.148;7.014;2023-07-20T08:48:25;5.37;;;1.80;;
6755;SDS011;3415;51.148;7.014;2023-07-20T08:50:54;1.87;;;1.73;;
6755;SDS011;3415;51.148;7.014;2023-07-20T08:53:22;2.50;;;2.10;;
6755;SDS011;3415;51.148;7.014;2023-07-20T08:55:50;1.90;;;1.60;;
6755;SDS011;3415;51.148;7.014;2023-07-20T08:58:18;4.83;;;1.67;;
6755;SDS011;3415;51.148;7.014;2023-07-20T09:00:46;2.30;;;2.10;;
6755;SDS011;3415;51.148;7.014;2023-07-20T09:03:15;3.43;;;1.87;;
6755;SDS011;3415;51.148;7.014;2023-07-20T09:05:42;2.20;;;2.00;;
6755;SDS011;3415;51.148;7.014;2023-07-20T09:08:10;1.73;;;1.63;;
6755;SDS011;3415;51.148;7.014;2023-07-20T09:10:37;2.50;;;1.53;;
6755;SDS011;3415;51.148;7.014;2023-07-20T09:13:04;1.70;;;1.60;;
6755;SDS011;3415;51.148;7.014;2023-07-20T09:15:31;1.53;;;1.33;;
6755;SDS011;3415;51.148;7.014;2023-07-20T09:18:00;2.67;;;1.47;;
6755;SDS011;3415;51.148;7.014;2023-07-20T09:20:30;1.57;;;1.47;;
6755;SDS011;3415;51.148;7.014;2023-07-20T09:22:59;2.60;;;1.30;;
6755;SDS011;3415;51.148;7.014;2023-07-20T09:25:31;1.20;;;1.20;;
6755;SDS011;3415;51.148;7.014;2023-07-20T09:28:01;2.23;;;2.13;;
6755;SDS011;3415;51.148;7.014;2023-07-20T09:30:29;2.07;;;1.97;;
6755;SDS011;3415;51.148;7.014;2023-07-20T09:32:56;2.00;;;1.90;;
6755;SDS011;3415;51.148;7.014;2023-07-20T09:35:26;2.40;;;2.20;;
6755;SDS011;3415;51.148;7.014;2023-07-20T09:37:54;3.30;;;2.90;;
6755;SDS011;3415;51.148;7.014;2023-07-20T09:40:24;3.13;;;2.07;;
6755;SDS011;3415;51.148;7.014;2023-07-20T09:42:52;4.70;;;2.67;;
6755;SDS011;3415;51.148;7.014;2023-07-20T09:45:27;2.43;;;2.23;;
6755;SDS011;3415;51.148;7.014;2023-07-20T09:48:02;2.37;;;2.17;;
6755;SDS011;3415;51.148;7.014;2023-07-20T09:50:30;2.90;;;2.70;;
6755;SDS011;3415;51.148;7.014;2023-07-20T09:52:57;2.33;;;2.13;;
6755;SDS011;3415;51.148;7.014;2023-07-20T09:55:25;2.67;;;2.47;;
6755;SDS011;3415;51.148;7.014;2023-07-20T09:57:53;2.77;;;2.57;;
6755;SDS011;3415;51.148;7.014;2023-07-20T10:00:20;3.03;;;2.73;;
6755;SDS011;3415;51.148;7.014;2023-07-20T10:02:47;2.57;;;2.37;;
6755;SDS011;3415;51.148;7.014;2023-07-20T10:05:19;2.80;;;2.60;;
6755;SDS011;3415;51.148;7.014;2023-07-20T10:07:48;2.33;;;1.80;;
6755;SDS011;3415;51.148;7.014;2023-07-20T10:10:17;4.67;;;2.57;;
6755;SDS011;3415;51.148;7.014;2023-07-20T10:12:47;2.20;;;2.03;;
6755;SDS011;3415;51.148;7.014;2023-07-20T10:15:17;2.40;;;2.20;;
6755;SDS011;3415;51.148;7.014;2023-07-20T10:17:49;2.40;;;2.20;;
6755;SDS011;3415;51.148;7.014;2023-07-20T10:20:27;2.00;;;1.80;;
6755;SDS011;3415;51.148;7.014;2023-07-20T10:22:54;1.70;;;1.60;;
6755;SDS011;3415;51.148;7.014;2023-07-20T10:25:23;1.80;;;1.70;;
6755;SDS011;3415;51.148;7.014;2023-07-20T10:27:50;1.77;;;1.67;;
6755;SDS011;3415;51.148;7.014;2023-07-20T10:30:18;2.07;;;1.40;;
6755;SDS011;3415;51.148;7.014;2023-07-20T10:32:45;1.60;;;1.50;;
6755;SDS011;3415;51.148;7.014;2023-07-20T10:35:14;1.80;;;1.70;;
6755;SDS011;3415;51.148;7.014;2023-07-20T10:37:49;2.83;;;2.60;;
6755;SDS011;3415;51.148;7.014;2023-07-20T10:40:24;5.00;;;2.00;;
6755;SDS011;3415;51.148;7.014;2023-07-20T10:42:57;2.40;;;2.30;;
6755;SDS011;3415;51.148;7.014;2023-07-20T10:48:18;1.83;;;1.73;;
6755;SDS011;3415;51.148;7.014;2023-07-20T10:53:36;1.50;;;1.40;;
6755;SDS011;3415;51.148;7.014;2023-07-20T10:56:06;1.53;;;1.43;;
6755;SDS011;3415;51.148;7.014;2023-07-20T10:58:35;1.60;;;1.40;;
6755;SDS011;3415;51.148;7.014;2023-07-20T11:01:02;1.43;;;1.33;;
6755;SDS011;3415;51.148;7.014;2023-07-20T11:03:33;1.37;;;1.27;;
6755;SDS011;3415;51.148;7.014;2023-07-20T11:09:05;1.40;;;1.30;;
6755;SDS011;3415;51.148;7.014;2023-07-20T11:11:36;1.70;;;1.60;;
6755;SDS011;3415;51.148;7.014;2023-07-20T11:14:05;1.40;;;1.30;;
6755;SDS011;3415;51.148;7.014;2023-07-20T11:16:37;1.43;;;1.33;;
6755;SDS011;3415;51.148;7.014;2023-07-20T11:19:13;1.07;;;1.00;;
6755;SDS011;3415;51.148;7.014;2023-07-20T11:21:43;1.10;;;1.10;;
6755;SDS011;3415;51.148;7.014;2023-07-20T11:24:13;1.30;;;1.20;;
6755;SDS011;3415;51.148;7.014;2023-07-20T11:26:41;1.30;;;1.20;;
6755;SDS011;3415;51.148;7.014;2023-07-20T11:29:12;1.50;;;1.30;;
6755;SDS011;3415;51.148;7.014;2023-07-20T11:31:40;1.40;;;1.10;;
6755;SDS011;3415;51.148;7.014;2023-07-20T11:34:10;1.87;;;1.37;;
6755;SDS011;3415;51.148;7.014;2023-07-20T11:36:39;2.23;;;1.30;;
6755;SDS011;3415;51.148;7.014;2023-07-20T11:39:07;1.10;;;1.10;;
6755;SDS011;3415;51.148;7.014;2023-07-20T11:41:37;1.57;;;1.10;;
6755;SDS011;3415;51.148;7.014;2023-07-20T11:44:05;1.53;;;1.43;;
6755;SDS011;3415;51.148;7.014;2023-07-20T11:46:33;1.00;;;0.97;;
6755;SDS011;3415;51.148;7.014;2023-07-20T11:49:00;1.00;;;0.90;;
6755;SDS011;3415;51.148;7.014;2023-07-20T11:51:29;1.50;;;1.10;;
6755;SDS011;3415;51.148;7.014;2023-07-20T11:53:57;1.10;;;1.00;;
6755;SDS011;3415;51.148;7.014;2023-07-20T11:56:25;4.10;;;0.90;;
6755;SDS011;3415;51.148;7.014;2023-07-20T11:58:55;0.90;;;0.90;;
6755;SDS011;3415;51.148;7.014;2023-07-20T12:01:26;1.30;;;0.80;;
6755;SDS011;3415;51.148;7.014;2023-07-20T12:03:56;1.37;;;1.10;;
6755;SDS011;3415;51.148;7.014;2023-07-20T12:06:24;1.13;;;1.03;;
6755;SDS011;3415;51.148;7.014;2023-07-20T12:08:53;1.33;;;0.90;;
6755;SDS011;3415;51.148;7.014;2023-07-20T12:11:32;0.80;;;0.80;;
6755;SDS011;3415;51.148;7.014;2023-07-20T12:14:02;1.27;;;1.07;;
6755;SDS011;3415;51.148;7.014;2023-07-20T12:16:30;1.10;;;1.00;;
6755;SDS011;3415;51.148;7.014;2023-07-20T12:19:00;1.57;;;1.20;;
6755;SDS011;3415;51.148;7.014;2023-07-20T12:21:28;1.47;;;1.00;;
6755;SDS011;3415;51.148;7.014;2023-07-20T12:23:56;1.10;;;1.10;;
6755;SDS011;3415;51.148;7.014;2023-07-20T12:26:24;0.70;;;0.70;;
6755;SDS011;3415;51.148;7.014;2023-07-20T12:28:52;2.10;;;0.90;;
6755;SDS011;3415;51.148;7.014;2023-07-20T12:31:20;1.00;;;0.90;;
6755;SDS011;3415;51.148;7.014;2023-07-20T12:33:49;0.80;;;0.77;;
6755;SDS011;3415;51.148;7.014;2023-07-20T12:36:16;0.70;;;0.70;;
6755;SDS011;3415;51.148;7.014;2023-07-20T12:38:44;0.83;;;0.83;;
6755;SDS011;3415;51.148;7.014;2023-07-20T12:41:11;1.00;;;0.90;;
6755;SDS011;3415;51.148;7.014;2023-07-20T12:43:39;1.90;;;1.00;;
6755;SDS011;3415;51.148;7.014;2023-07-20T12:46:07;0.90;;;0.90;;
6755;SDS011;3415;51.148;7.014;2023-07-20T12:48:36;1.00;;;0.90;;
6755;SDS011;3415;51.148;7.014;2023-07-20T12:51:05;1.50;;;0.80;;
6755;SDS011;3415;51.148;7.014;2023-07-20T12:53:32;1.87;;;1.77;;
6755;SDS011;3415;51.148;7.014;2023-07-20T12:56:00;1.73;;;0.80;;
6755;SDS011;3415;51.148;7.014;2023-07-20T12:58:27;6.67;;;1.07;;
6755;SDS011;3415;51.148;7.014;2023-07-20T13:00:54;1.00;;;0.90;;
6755;SDS011;3415;51.148;7.014;2023-07-20T13:03:21;0.90;;;0.90;;
6755;SDS011;3415;51.148;7.014;2023-07-20T13:05:50;0.90;;;0.90;;
6755;SDS011;3415;51.148;7.014;2023-07-20T13:08:17;0.90;;;0.90;;
6755;SDS011;3415;51.148;7.014;2023-07-20T13:10:44;1.00;;;1.00;;
6755;SDS011;3415;51.148;7.014;2023-07-20T13:13:11;1.00;;;0.90;;
6755;SDS011;3415;51.148;7.014;2023-07-20T13:15:42;1.10;;;1.00;;
6755;SDS011;3415;51.148;7.014;2023-07-20T13:18:11;0.90;;;0.90;;
6755;SDS011;3415;51.148;7.014;2023-07-20T13:20:38;1.33;;;1.10;;
6755;SDS011;3415;51.148;7.014;2023-07-20T13:23:07;2.43;;;1.10;;
6755;SDS011;3415;51.148;7.014;2023-07-20T13:25:34;0.97;;;0.97;;
6755;SDS011;3415;51.148;7.014;2023-07-20T13:28:00;2.57;;;1.63;;
6755;SDS011;3415;51.148;7.014;2023-07-20T13:30:28;1.13;;;1.03;;
6755;SDS011;3415;51.148;7.014;2023-07-20T13:32:55;1.23;;;1.07;;
6755;SDS011;3415;51.148;7.014;2023-07-20T13:35:22;5.90;;;1.47;;
6755;SDS011;3415;51.148;7.014;2023-07-20T13:37:49;1.00;;;1.00;;
6755;SDS011;3415;51.148;7.014;2023-07-20T13:40:17;0.80;;;0.80;;
6755;SDS011;3415;51.148;7.014;2023-07-20T13:42:44;1.40;;;1.27;;
6755;SDS011;3415;51.148;7.014;2023-07-20T13:45:11;1.30;;;1.20;;
6755;SDS011;3415;51.148;7.014;2023-07-20T13:47:38;1.23;;;1.07;;
6755;SDS011;3415;51.148;7.014;2023-07-20T13:50:06;1.10;;;1.00;;
6755;SDS011;3415;51.148;7.014;2023-07-20T13:52:33;1.13;;;1.07;;
6755;SDS011;3415;51.148;7.014;2023-07-20T13:55:01;1.07;;;0.93;;
6755;SDS011;3415;51.148;7.014;2023-07-20T13:57:30;0.80;;;0.80;;
6755;SDS011;3415;51.148;7.014;2023-07-20T13:59:58;0.80;;;0.80;;
6755;SDS011;3415;51.148;7.014;2023-07-20T14:02:25;0.93;;;0.93;;
6755;SDS011;3415;51.148;7.014;2023-07-20T14:04:52;1.37;;;1.23;;
6755;SDS011;3415;51.148;7.014;2023-07-20T14:07:20;1.37;;;0.97;;
6755;SDS011;3415;51.148;7.014;2023-07-20T14:09:48;1.20;;;1.10;;
6755;SDS011;3415;51.148;7.014;2023-07-20T14:12:15;1.20;;;1.10;;
6755;SDS011;3415;51.148;7.014;2023-07-20T14:14:43;3.93;;;1.00;;
6755;SDS011;3415;51.148;7.014;2023-07-20T14:17:10;1.00;;;1.00;;
6755;SDS011;3415;51.148;7.014;2023-07-20T14:19:37;0.90;;;0.90;;
6755;SDS011;3415;51.148;7.014;2023-07-20T14:22:04;1.23;;;1.10;;
6755;SDS011;3415;51.148;7.014;2023-07-20T14:24:32;2.70;;;1.20;;
6755;SDS011;3415;51.148;7.014;2023-07-20T14:26:59;1.07;;;1.07;;
6755;SDS011;3415;51.148;7.014;2023-07-20T14:29:26;1.03;;;0.93;;
6755;SDS011;3415;51.148;7.014;2023-07-20T14:31:57;1.30;;;1.20;;
6755;SDS011;3415;51.148;7.014;2023-07-20T14:34:25;6.13;;;0.90;;
6755;SDS011;3415;51.148;7.014;2023-07-20T14:36:52;1.27;;;0.80;;
6755;SDS011;3415;51.148;7.014;2023-07-20T14:39:19;1.23;;;1.00;;
6755;SDS011;3415;51.148;7.014;2023-07-20T14:41:46;2.60;;;0.93;;
6755;SDS011;3415;51.148;7.014;2023-07-20T14:44:15;2.30;;;1.13;;
6755;SDS011;3415;51.148;7.014;2023-07-20T14:46:42;0.87;;;0.80;;
6755;SDS011;3415;51.148;7.014;2023-07-20T14:49:10;1.30;;;1.30;;
6755;SDS011;3415;51.148;7.014;2023-07-20T14:51:37;0.93;;;0.87;;
6755;SDS011;3415;51.148;7.014;2023-07-20T14:54:08;1.90;;;1.20;;
6755;SDS011;3415;51.148;7.014;2023-07-20T14:56:37;1.23;;;1.10;;
6755;SDS011;3415;51.148;7.014;2023-07-20T14:59:06;4.47;;;1.43;;
6755;SDS011;3415;51.148;7.014;2023-07-20T15:01:33;1.90;;;1.20;;
6755;SDS011;3415;51.148;7.014;2023-07-20T15:04:00;2.87;;;1.43;;
6755;SDS011;3415;51.148;7.014;2023-07-20T15:06:28;3.00;;;1.20;;
6755;SDS011;3415;51.148;7.014;2023-07-20T15:08:56;1.27;;;1.00;;
6755;SDS011;3415;51.148;7.014;2023-07-20T15:11:25;1.17;;;1.07;;
6755;SDS011;3415;51.148;7.014;2023-07-20T15:13:52;1.10;;;1.00;;
6755;SDS011;3415;51.148;7.014;2023-07-20T15:16:19;1.03;;;0.80;;
6755;SDS011;3415;51.148;7.014;2023-07-20T15:18:46;1.20;;;1.10;;
6755;SDS011;3415;51.148;7.014;2023-07-20T15:21:13;1.80;;;1.13;;
6755;SDS011;3415;51.148;7.014;2023-07-20T15:23:41;2.00;;;1.00;;
6755;SDS011;3415;51.148;7.014;2023-07-20T15:26:08;1.13;;;1.10;;
6755;SDS011;3415;51.148;7.014;2023-07-20T15:28:36;1.63;;;1.10;;
6755;SDS011;3415;51.148;7.014;2023-07-20T15:31:03;1.40;;;1.30;;
6755;SDS011;3415;51.148;7.014;2023-07-20T15:33:31;1.83;;;1.20;;